Terminal Aerodrome Forecast
Issued by NWS

Home | Current Version | Previous Version | Text Only | Print | Product List | Glossary Off
Versions: 1 2 3 4 5 6 7 8 9 10 11 12 13 14 15 16

385
FTUS43 KOAX 160323 AAB
TAFCDR
TAF AMD
KCDR 160323Z 1603/1624 35012KT P6SM VCSH SCT025 BKN040
      TEMPO 1604/1606 6SM -SHRA BKN030
     FM160800 VRB05KT P6SM SCT100=

USA.gov is the U.S. government's official web portal to all federal, state and local government web resources and services.